This is the latest recevied weather packets stored in our database for station/object IQ5QD-13. If no packets are shown the sender has not sent any weather packets the latest 10 day(s).
| Time | Temp. | Humidity | Pressure | Rain* | Wind** | Luminosity | Snow |
|---|---|---|---|---|---|---|---|
| 1777438542 | 6.11° C | 91% | 1011.2 hPa | 0 mm | - | 26 W/m² | - |
| 1777435556 | 6.11° C | 90% | 1011.2 hPa | 0 mm | - | 1 W/m² | - |
| 1777432533 | 6.67° C | 90% | 1011.4 hPa | 0 mm | - | 0 W/m² | - |
| 1777431317 | 6.67° C | 90% | 1011.4 hPa | 0 mm | - | 0 W/m² | - |
| 1777428373 | 7.22° C | 90% | 1011.4 hPa | 0 mm | - | 0 W/m² | - |
| 1777427753 | 7.22° C | 90% | 1011.2 hPa | 0 mm | - | 0 W/m² | - |
| 1777423557 | 7.78° C | 90% | 1011.2 hPa | 0 mm | - | 0 W/m² | - |
| 1777421157 | 8.33° C | 90% | 1011.2 hPa | 0 mm | - | 0 W/m² | - |
| 1777420533 | 8.33° C | 89% | 1011.1 hPa | 0 mm | - | 0 W/m² | - |
| 1777416341 | 8.89° C | 88% | 1011.2 hPa | 0 mm | - | 0 W/m² | - |
| 1777413934 | 10° C | 87% | 1011.2 hPa | 0 mm | - | 0 W/m² | - |
| 1777411542 | 10.56° C | 85% | 1011 hPa | 0 mm | - | 0 W/m² | - |
| 1777401349 | 17.78° C | 65% | 1010 hPa | 0 mm | - | 0 W/m² | - |
| 1777399535 | 18.89° C | 59% | 1009.8 hPa | 0 mm | - | 7 W/m² | - |
| 1777397124 | 21.11° C | 51% | 1009.7 hPa | 0 mm | - | 30 W/m² | - |
| 1777393576 | 22.78° C | 44% | 1009.4 hPa | 0 mm | - | 148 W/m² | - |
| 1777383370 | 26.11° C | 37% | 1010 hPa | 0 mm | - | 557 W/m² | - |
| 1777382774 | 26.11° C | 37% | 1010.1 hPa | 0 mm | - | 584 W/m² | - |
| 1777378547 | 25.56° C | 41% | 1010.5 hPa | 0 mm | - | 647 W/m² | - |
| 1777376757 | 25° C | 40% | 1010.7 hPa | 0 mm | - | 680 W/m² | - |
| 1777375593 | 25° C | 41% | 1011 hPa | 0 mm | - | 678 W/m² | - |
| 1777374933 | 25° C | 42% | 1011.1 hPa | 0 mm | - | 677 W/m² | - |
| 1777370724 | 22.78° C | 52% | 1011.8 hPa | 0 mm | - | 633 W/m² | - |
| 1777370144 | 22.78° C | 53% | 1011.9 hPa | 0 mm | - | 621 W/m² | - |
| 1777367157 | 20.56° C | 61% | 1012.3 hPa | 0 mm | - | 538 W/m² | - |
* Rain latest hour (hover to see other rain measurements)
** Current wind speed in m/s (hover to see current wind gust speed)